Time;durP1;ratioP1;P1;durP2;ratioP2;P2;SDS_P1;SDS_P2;PMS_P1;PMS_P2;Temp;Humidity;BMP_temperature;BMP_pressure;BME280_temperature;BME280_humidity;BME280_pressure;Samples;Min_cycle;Max_cycle;Signal;HPM_P1;HPM_P2
2023/12/15 00:00:28;;;;;;;9.48;2.70;;;;;;;;;;5064999;28;20109;-47
2023/12/15 00:02:55;;;;;;;9.43;3.05;;;;;;;;;;5062080;28;20134;-48
2023/12/15 00:05:22;;;;;;;9.57;3.15;;;;;;;;;;5063928;28;20028;-48
2023/12/15 00:07:49;;;;;;;14.93;3.15;;;;;;;;;;5065045;28;20471;-46
2023/12/15 00:10:16;;;;;;;13.00;3.20;;;;;;;;;;5063046;28;20031;-47
2023/12/15 00:12:43;;;;;;;11.02;3.20;;;;;;;;;;5061981;28;20090;-48
2023/12/15 00:15:10;;;;;;;15.35;3.95;;;;;;;;;;5058387;28;20040;-48
2023/12/15 00:17:37;;;;;;;13.40;3.90;;;;;;;;;;5065570;28;20025;-47
2023/12/15 00:20:04;;;;;;;9.90;3.85;;;;;;;;;;5064001;28;20048;-47
2023/12/15 00:22:31;;;;;;;14.40;4.32;;;;;;;;;;5065055;28;20163;-39
2023/12/15 00:24:58;;;;;;;9.65;4.13;;;;;;;;;;5065927;28;20490;-38
2023/12/15 00:27:25;;;;;;;10.77;4.30;;;;;;;;;;5088386;28;20535;-38
2023/12/15 00:29:52;;;;;;;49.53;6.50;;;;;;;;;;5094567;28;20087;-39
2023/12/15 00:32:19;;;;;;;15.10;4.18;;;;;;;;;;5087676;28;20631;-41
2023/12/15 00:34:46;;;;;;;12.43;3.80;;;;;;;;;;5080527;28;20043;-37
2023/12/15 00:37:13;;;;;;;17.75;4.57;;;;;;;;;;5073476;28;20052;-39
2023/12/15 00:39:40;;;;;;;12.80;4.13;;;;;;;;;;5074041;28;20033;-40
2023/12/15 00:42:07;;;;;;;12.27;3.63;;;;;;;;;;5073823;28;20116;-39
2023/12/15 00:44:34;;;;;;;10.32;3.75;;;;;;;;;;5060979;28;20097;-38
2023/12/15 00:47:01;;;;;;;7.70;3.58;;;;;;;;;;5082643;28;20055;-37
2023/12/15 00:49:28;;;;;;;9.57;3.72;;;;;;;;;;5084159;28;20021;-38
2023/12/15 00:51:55;;;;;;;7.43;3.15;;;;;;;;;;5079133;28;20098;-37
2023/12/15 00:54:22;;;;;;;10.63;3.55;;;;;;;;;;5081283;28;20096;-38
2023/12/15 00:56:50;;;;;;;9.25;4.47;;;;;;;;;;5072924;28;20505;-37
2023/12/15 00:59:17;;;;;;;9.52;4.50;;;;;;;;;;5069420;28;20024;-36
2023/12/15 01:01:44;;;;;;;13.93;4.45;;;;;;;;;;5058951;28;20036;-33
2023/12/15 01:04:11;;;;;;;13.82;4.75;;;;;;;;;;5065461;28;20475;-33
2023/12/15 01:06:38;;;;;;;15.38;3.88;;;;;;;;;;5068104;28;20491;-37
2023/12/15 01:09:06;;;;;;;9.20;4.20;;;;;;;;;;5071758;28;20027;-34
2023/12/15 01:11:33;;;;;;;9.05;3.35;;;;;;;;;;5062368;28;20039;-39
2023/12/15 01:14:00;;;;;;;10.73;3.20;;;;;;;;;;5058049;28;20057;-37
2023/12/15 01:16:27;;;;;;;5.10;2.38;;;;;;;;;;5060095;28;20025;-37
2023/12/15 01:18:54;;;;;;;10.23;3.38;;;;;;;;;;5054740;28;20029;-36
2023/12/15 01:21:21;;;;;;;9.95;3.10;;;;;;;;;;5059701;28;20021;-34
2023/12/15 01:23:48;;;;;;;6.43;2.97;;;;;;;;;;5052792;28;20478;-34
2023/12/15 01:26:15;;;;;;;7.15;3.35;;;;;;;;;;5063315;28;20032;-37
2023/12/15 01:28:43;;;;;;;9.60;3.60;;;;;;;;;;5058943;28;20063;-33
2023/12/15 01:31:10;;;;;;;14.27;4.32;;;;;;;;;;5067719;28;20078;-36
2023/12/15 01:33:37;;;;;;;10.73;3.45;;;;;;;;;;5067869;28;20032;-37
2023/12/15 01:36:04;;;;;;;8.35;3.10;;;;;;;;;;5057387;28;20024;-35
2023/12/15 01:38:31;;;;;;;21.52;5.47;;;;;;;;;;5067141;28;20040;-34
2023/12/15 01:40:58;;;;;;;15.23;3.95;;;;;;;;;;5064433;28;20036;-34
2023/12/15 01:43:25;;;;;;;10.30;3.92;;;;;;;;;;5064608;28;20043;-33
2023/12/15 01:45:52;;;;;;;18.17;3.95;;;;;;;;;;5063723;28;20028;-36
2023/12/15 01:48:19;;;;;;;17.40;4.30;;;;;;;;;;5063540;28;20032;-36
2023/12/15 01:50:46;;;;;;;14.55;4.72;;;;;;;;;;5064732;28;20513;-34
2023/12/15 01:53:13;;;;;;;15.32;4.70;;;;;;;;;;5052587;28;20029;-35
2023/12/15 01:55:40;;;;;;;18.77;5.25;;;;;;;;;;5055651;28;20024;-34
2023/12/15 01:58:07;;;;;;;13.10;5.35;;;;;;;;;;5062416;28;20387;-37
2023/12/15 02:00:34;;;;;;;22.45;7.13;;;;;;;;;;5052174;28;20036;-34
2023/12/15 02:03:01;;;;;;;15.65;4.82;;;;;;;;;;5063614;28;20067;-37
2023/12/15 02:05:28;;;;;;;14.43;5.45;;;;;;;;;;5052332;28;20032;-34
2023/12/15 02:07:55;;;;;;;14.77;4.70;;;;;;;;;;5053327;28;20041;-34
2023/12/15 02:10:22;;;;;;;14.38;4.57;;;;;;;;;;5065275;28;20025;-37
2023/12/15 02:12:49;;;;;;;12.02;4.95;;;;;;;;;;5065289;28;20032;-37
2023/12/15 02:15:16;;;;;;;10.77;4.50;;;;;;;;;;5058946;28;20025;-35
2023/12/15 02:17:43;;;;;;;12.45;5.00;;;;;;;;;;5058632;28;20024;-38
2023/12/15 02:20:10;;;;;;;12.45;4.95;;;;;;;;;;5064762;28;20032;-37
2023/12/15 02:22:37;;;;;;;9.38;4.22;;;;;;;;;;5080081;28;20024;-37
2023/12/15 02:25:04;;;;;;;10.05;4.53;;;;;;;;;;5079365;28;20024;-34
2023/12/15 02:27:31;;;;;;;12.57;4.13;;;;;;;;;;5076939;28;20066;-35
2023/12/15 02:29:58;;;;;;;7.80;3.20;;;;;;;;;;5073202;28;20021;-35
2023/12/15 02:32:25;;;;;;;11.05;3.97;;;;;;;;;;5073628;28;20126;-37
2023/12/15 02:34:52;;;;;;;8.68;3.60;;;;;;;;;;5067592;28;20098;-35
2023/12/15 02:37:19;;;;;;;9.98;3.75;;;;;;;;;;5049185;28;20043;-37
2023/12/15 02:39:46;;;;;;;7.22;3.85;;;;;;;;;;5063972;28;20016;-38
2023/12/15 02:42:13;;;;;;;8.45;3.50;;;;;;;;;;5066973;28;20414;-38
2023/12/15 02:44:42;;;;;;;11.20;4.28;;;;;;;;;;5069372;28;20032;-36
2023/12/15 02:47:09;;;;;;;12.13;4.55;;;;;;;;;;5069388;28;20473;-41
2023/12/15 02:49:42;;;;;;;6.95;3.50;;;;;;;;;;5075592;28;20036;-38
2023/12/15 02:52:09;;;;;;;6.68;2.70;;;;;;;;;;5079401;28;20382;-34
2023/12/15 02:54:36;;;;;;;5.60;3.00;;;;;;;;;;5081040;28;20486;-34
2023/12/15 02:57:02;;;;;;;10.40;2.83;;;;;;;;;;5079861;28;20032;-36
2023/12/15 02:59:29;;;;;;;7.72;3.10;;;;;;;;;;5081783;28;20055;-37
2023/12/15 03:01:56;;;;;;;9.07;3.10;;;;;;;;;;5081165;28;20067;-34
2023/12/15 03:04:23;;;;;;;6.43;2.70;;;;;;;;;;5079853;28;20024;-38
2023/12/15 03:06:50;;;;;;;8.15;2.40;;;;;;;;;;5081524;28;20020;-34
2023/12/15 03:09:17;;;;;;;7.55;2.47;;;;;;;;;;5081105;28;20107;-36
2023/12/15 03:11:44;;;;;;;9.27;2.30;;;;;;;;;;5079704;28;20036;-34
2023/12/15 03:14:11;;;;;;;5.50;2.22;;;;;;;;;;5081171;28;20031;-36
2023/12/15 03:16:38;;;;;;;6.03;2.10;;;;;;;;;;5081267;28;20522;-37
2023/12/15 03:19:05;;;;;;;6.07;2.03;;;;;;;;;;5079782;28;20455;-34
2023/12/15 03:21:32;;;;;;;3.10;1.45;;;;;;;;;;5081428;28;20054;-34
2023/12/15 03:23:59;;;;;;;4.50;1.90;;;;;;;;;;5079657;28;20032;-35
2023/12/15 03:26:26;;;;;;;6.82;1.40;;;;;;;;;;5077822;28;20554;-35
2023/12/15 03:28:54;;;;;;;4.05;1.40;;;;;;;;;;5081767;28;20061;-35
2023/12/15 03:31:21;;;;;;;3.75;1.40;;;;;;;;;;5080029;28;20481;-35
2023/12/15 03:33:48;;;;;;;4.97;1.48;;;;;;;;;;5080382;28;20057;-35
2023/12/15 03:36:15;;;;;;;4.28;1.20;;;;;;;;;;5080989;28;20527;-34
2023/12/15 03:38:42;;;;;;;3.58;1.48;;;;;;;;;;5080304;28;20048;-37
2023/12/15 03:41:12;;;;;;;3.83;1.20;;;;;;;;;;5080059;28;20070;-37
2023/12/15 03:43:39;;;;;;;3.33;1.20;;;;;;;;;;5077032;28;20079;-34
2023/12/15 03:46:06;;;;;;;6.82;1.70;;;;;;;;;;5080460;28;20043;-34
2023/12/15 03:48:33;;;;;;;4.00;1.50;;;;;;;;;;5081654;28;20035;-37
2023/12/15 03:51:00;;;;;;;10.30;1.17;;;;;;;;;;5078532;28;20024;-37
2023/12/15 03:53:27;;;;;;;5.45;1.00;;;;;;;;;;5080499;28;20103;-38
2023/12/15 03:55:54;;;;;;;4.45;1.10;;;;;;;;;;5079507;28;20119;-34
2023/12/15 03:58:21;;;;;;;4.63;1.25;;;;;;;;;;5081449;28;20094;-37
2023/12/15 04:00:48;;;;;;;4.30;0.77;;;;;;;;;;5076697;28;20028;-37
2023/12/15 04:03:15;;;;;;;6.55;1.20;;;;;;;;;;5080433;28;20076;-37
2023/12/15 04:05:42;;;;;;;5.50;1.05;;;;;;;;;;5081443;28;20818;-34
2023/12/15 04:08:09;;;;;;;4.88;1.45;;;;;;;;;;5050983;28;20025;-37
2023/12/15 04:10:36;;;;;;;3.08;1.10;;;;;;;;;;5050780;28;20021;-37
2023/12/15 04:13:03;;;;;;;5.50;1.00;;;;;;;;;;5050727;28;20029;-37
2023/12/15 04:15:30;;;;;;;7.35;1.00;;;;;;;;;;5050868;28;20483;-37
2023/12/15 04:17:57;;;;;;;8.77;1.20;;;;;;;;;;5050757;28;20065;-38
2023/12/15 04:20:24;;;;;;;5.28;1.20;;;;;;;;;;5050659;28;20452;-37
2023/12/15 04:22:51;;;;;;;3.63;1.02;;;;;;;;;;5050671;28;20048;-37
2023/12/15 04:25:18;;;;;;;5.90;1.02;;;;;;;;;;5050734;28;20033;-38
2023/12/15 04:27:44;;;;;;;4.82;1.25;;;;;;;;;;5053227;28;20487;-37
2023/12/15 04:30:12;;;;;;;5.65;1.33;;;;;;;;;;5054218;28;20021;-36
2023/12/15 04:32:39;;;;;;;4.35;1.05;;;;;;;;;;5054231;28;20104;-37
2023/12/15 04:35:06;;;;;;;3.80;1.13;;;;;;;;;;5054308;28;20025;-38
2023/12/15 04:37:33;;;;;;;3.55;1.08;;;;;;;;;;5053891;28;20398;-37
2023/12/15 04:40:00;;;;;;;5.10;1.02;;;;;;;;;;5053941;28;20025;-37
2023/12/15 04:42:28;;;;;;;4.35;1.08;;;;;;;;;;5054055;28;20057;-37
2023/12/15 04:44:55;;;;;;;3.20;1.02;;;;;;;;;;5054037;28;20451;-37
2023/12/15 04:47:22;;;;;;;5.80;1.13;;;;;;;;;;5053904;28;20071;-37
2023/12/15 04:49:49;;;;;;;4.28;1.00;;;;;;;;;;5053957;28;20035;-38
2023/12/15 04:52:16;;;;;;;4.60;1.58;;;;;;;;;;5053889;28;20025;-36
2023/12/15 04:54:43;;;;;;;5.20;1.10;;;;;;;;;;5053762;28;20025;-41
2023/12/15 04:57:10;;;;;;;9.48;1.00;;;;;;;;;;5053869;28;20025;-37
2023/12/15 04:59:39;;;;;;;7.05;1.13;;;;;;;;;;5053671;28;20020;-37
2023/12/15 05:02:07;;;;;;;5.90;1.50;;;;;;;;;;5053478;28;20057;-37
2023/12/15 05:04:34;;;;;;;5.32;1.10;;;;;;;;;;5053528;28;20475;-37
2023/12/15 05:07:02;;;;;;;4.80;0.98;;;;;;;;;;5053647;28;20029;-38
2023/12/15 05:09:28;;;;;;;4.47;1.10;;;;;;;;;;5053581;28;20094;-37
2023/12/15 05:11:55;;;;;;;4.70;1.10;;;;;;;;;;5053495;28;20128;-36
2023/12/15 05:14:22;;;;;;;10.20;1.20;;;;;;;;;;5035610;28;20438;-38
2023/12/15 05:16:49;;;;;;;3.97;1.15;;;;;;;;;;5053408;28;20036;-37
2023/12/15 05:19:16;;;;;;;4.25;1.25;;;;;;;;;;5053475;28;20032;-36
2023/12/15 05:21:43;;;;;;;4.68;1.20;;;;;;;;;;5053403;28;20125;-40
2023/12/15 05:24:10;;;;;;;4.97;1.15;;;;;;;;;;5053230;28;20121;-37
2023/12/15 05:26:37;;;;;;;2.72;1.10;;;;;;;;;;5053232;28;20037;-33
2023/12/15 05:29:04;;;;;;;6.55;1.02;;;;;;;;;;5053212;28;20032;-33
2023/12/15 05:31:31;;;;;;;4.45;1.10;;;;;;;;;;5053123;28;20055;-33
2023/12/15 05:33:58;;;;;;;7.53;1.45;;;;;;;;;;5053132;28;20033;-34
2023/12/15 05:36:25;;;;;;;4.18;0.98;;;;;;;;;;5053042;28;20057;-34
2023/12/15 05:38:53;;;;;;;4.63;0.95;;;;;;;;;;5052906;28;20542;-33
2023/12/15 05:41:20;;;;;;;8.40;1.40;;;;;;;;;;5052802;28;20063;-34
2023/12/15 05:43:47;;;;;;;4.05;1.30;;;;;;;;;;5052826;28;20098;-34
2023/12/15 05:46:14;;;;;;;4.53;1.35;;;;;;;;;;5052760;28;20040;-33
2023/12/15 05:48:41;;;;;;;2.92;1.10;;;;;;;;;;5052632;28;20479;-34
2023/12/15 05:51:08;;;;;;;3.08;1.42;;;;;;;;;;5052821;28;20053;-34
2023/12/15 05:53:35;;;;;;;3.08;0.82;;;;;;;;;;5052707;28;20032;-36
2023/12/15 05:56:02;;;;;;;3.33;1.25;;;;;;;;;;5052730;28;20029;-33
2023/12/15 05:58:29;;;;;;;4.55;1.02;;;;;;;;;;5052710;28;20029;-33
2023/12/15 06:00:56;;;;;;;2.58;1.27;;;;;;;;;;5054299;28;20033;-34
2023/12/15 06:03:23;;;;;;;7.65;1.20;;;;;;;;;;5072100;28;20106;-34
2023/12/15 06:05:50;;;;;;;2.30;1.00;;;;;;;;;;5072347;28;20024;-34
2023/12/15 06:08:17;;;;;;;7.18;1.10;;;;;;;;;;5072395;28;20627;-33
2023/12/15 06:10:44;;;;;;;3.97;1.10;;;;;;;;;;5072354;28;20036;-34
2023/12/15 06:13:11;;;;;;;4.70;1.10;;;;;;;;;;5072265;28;20033;-33
2023/12/15 06:15:38;;;;;;;3.55;1.05;;;;;;;;;;5072402;28;20490;-35
2023/12/15 06:18:05;;;;;;;2.03;1.00;;;;;;;;;;5072326;28;20035;-34
2023/12/15 06:20:32;;;;;;;2.95;1.10;;;;;;;;;;5072195;28;20478;-35
2023/12/15 06:23:00;;;;;;;4.65;1.08;;;;;;;;;;5072139;28;20490;-36
2023/12/15 06:25:27;;;;;;;2.03;0.95;;;;;;;;;;5072059;28;20165;-35
2023/12/15 06:27:54;;;;;;;2.10;0.88;;;;;;;;;;5071895;28;20032;-35
2023/12/15 06:30:21;;;;;;;4.38;1.10;;;;;;;;;;5072015;28;20033;-35
2023/12/15 06:32:48;;;;;;;7.68;1.27;;;;;;;;;;5072062;28;20035;-34
2023/12/15 06:35:16;;;;;;;2.63;0.90;;;;;;;;;;5072014;28;20020;-34
2023/12/15 06:37:43;;;;;;;3.47;1.10;;;;;;;;;;5071795;28;20040;-34
2023/12/15 06:40:10;;;;;;;2.95;1.20;;;;;;;;;;5071807;28;20471;-35
2023/12/15 06:42:37;;;;;;;3.45;1.13;;;;;;;;;;5071876;28;20567;-35
2023/12/15 06:45:07;;;;;;;2.47;1.02;;;;;;;;;;5071903;28;20028;-34
2023/12/15 06:47:35;;;;;;;2.53;0.93;;;;;;;;;;5071700;28;20034;-35
2023/12/15 06:50:02;;;;;;;5.22;1.48;;;;;;;;;;5071088;28;20103;-33
2023/12/15 06:52:29;;;;;;;5.45;1.30;;;;;;;;;;5071607;28;20044;-34
2023/12/15 06:54:56;;;;;;;2.70;1.20;;;;;;;;;;5071622;28;20099;-34
2023/12/15 06:57:23;;;;;;;2.95;1.15;;;;;;;;;;5071753;28;20104;-34
2023/12/15 06:59:50;;;;;;;3.83;1.00;;;;;;;;;;5071744;28;20071;-33
2023/12/15 07:02:17;;;;;;;2.35;1.10;;;;;;;;;;5071381;28;20097;-34
2023/12/15 07:04:44;;;;;;;2.10;0.93;;;;;;;;;;5071284;28;20058;-34
2023/12/15 07:07:11;;;;;;;1.85;1.10;;;;;;;;;;5071387;28;20021;-34
2023/12/15 07:09:38;;;;;;;3.78;1.00;;;;;;;;;;5071499;28;20072;-33
2023/12/15 07:12:08;;;;;;;2.55;0.90;;;;;;;;;;5071414;28;20486;-34
2023/12/15 07:14:37;;;;;;;2.05;0.90;;;;;;;;;;5071233;28;20368;-35
2023/12/15 07:17:04;;;;;;;2.53;0.73;;;;;;;;;;5053310;28;20497;-36
2023/12/15 07:19:31;;;;;;;2.60;1.17;;;;;;;;;;5071407;28;20063;-36
2023/12/15 07:21:58;;;;;;;5.43;1.23;;;;;;;;;;5071438;28;20364;-34
2023/12/15 07:24:25;;;;;;;1.67;0.80;;;;;;;;;;5071342;28;20044;-34
2023/12/15 07:26:51;;;;;;;4.35;1.30;;;;;;;;;;5071475;28;20132;-33
2023/12/15 07:29:21;;;;;;;3.03;1.05;;;;;;;;;;5071469;28;20479;-33
2023/12/15 07:31:49;;;;;;;3.83;1.30;;;;;;;;;;5071299;28;20032;-34
2023/12/15 07:34:17;;;;;;;2.25;0.90;;;;;;;;;;5071283;28;20041;-33
2023/12/15 07:36:44;;;;;;;3.42;0.88;;;;;;;;;;5071171;28;20028;-33
2023/12/15 07:39:11;;;;;;;2.45;0.90;;;;;;;;;;5071071;28;20036;-33
2023/12/15 07:41:39;;;;;;;4.40;0.98;;;;;;;;;;5071198;28;20440;-33
2023/12/15 07:44:06;;;;;;;4.57;1.00;;;;;;;;;;5071287;28;20490;-32
2023/12/15 07:46:33;;;;;;;1.58;0.70;;;;;;;;;;5071356;28;20134;-34
2023/12/15 07:49:01;;;;;;;4.20;1.08;;;;;;;;;;5071220;28;20465;-33
2023/12/15 07:51:28;;;;;;;3.92;1.20;;;;;;;;;;5071146;28;20049;-34
2023/12/15 07:53:55;;;;;;;3.55;0.98;;;;;;;;;;5071148;28;20033;-33
2023/12/15 07:56:22;;;;;;;3.10;1.13;;;;;;;;;;5071168;28;20071;-33
2023/12/15 07:58:50;;;;;;;3.42;1.00;;;;;;;;;;5071148;28;20243;-33
2023/12/15 08:01:17;;;;;;;2.15;1.05;;;;;;;;;;5071224;28;20107;-33
2023/12/15 08:03:45;;;;;;;2.10;1.15;;;;;;;;;;5074544;28;20041;-33
2023/12/15 08:06:13;;;;;;;7.57;1.25;;;;;;;;;;5074838;28;20028;-32
2023/12/15 08:08:41;;;;;;;1.60;1.15;;;;;;;;;;5074702;28;20505;-33
2023/12/15 08:11:09;;;;;;;3.67;1.35;;;;;;;;;;5074652;28;20036;-32
2023/12/15 08:13:37;;;;;;;5.63;1.30;;;;;;;;;;5074516;28;20041;-34
2023/12/15 08:16:04;;;;;;;1.88;1.02;;;;;;;;;;5074642;28;21186;-33
2023/12/15 08:18:31;;;;;;;2.72;1.30;;;;;;;;;;5074588;28;20028;-34
2023/12/15 08:20:59;;;;;;;2.33;1.23;;;;;;;;;;5074517;28;20051;-33
2023/12/15 08:23:26;;;;;;;3.70;1.75;;;;;;;;;;5074213;28;20037;-33
2023/12/15 08:25:53;;;;;;;2.17;1.30;;;;;;;;;;5074415;28;20383;-33
2023/12/15 08:28:20;;;;;;;3.58;1.40;;;;;;;;;;5074479;28;20035;-33
2023/12/15 08:30:48;;;;;;;3.70;1.50;;;;;;;;;;5074128;28;20056;-35
2023/12/15 08:33:15;;;;;;;3.00;1.38;;;;;;;;;;5074465;28;20028;-35
2023/12/15 08:35:42;;;;;;;4.50;1.27;;;;;;;;;;5074355;28;20025;-36
2023/12/15 08:38:09;;;;;;;5.65;1.55;;;;;;;;;;5074299;28;20028;-36
2023/12/15 08:40:36;;;;;;;4.88;1.60;;;;;;;;;;5073842;28;20024;-36
2023/12/15 08:43:03;;;;;;;4.38;1.58;;;;;;;;;;5073997;28;20119;-36
2023/12/15 08:45:30;;;;;;;4.50;1.63;;;;;;;;;;5074169;28;20088;-36
2023/12/15 08:47:57;;;;;;;5.55;1.80;;;;;;;;;;5074088;28;20414;-35
2023/12/15 08:50:24;;;;;;;8.13;1.75;;;;;;;;;;5073999;28;20033;-35
2023/12/15 08:52:51;;;;;;;2.58;1.55;;;;;;;;;;5073954;28;20398;-36
2023/12/15 08:55:19;;;;;;;4.78;2.05;;;;;;;;;;5073999;28;20482;-36
2023/12/15 08:57:46;;;;;;;5.05;1.90;;;;;;;;;;5073795;28;20043;-35
2023/12/15 09:00:13;;;;;;;4.40;2.08;;;;;;;;;;5055721;28;20659;-36
2023/12/15 09:02:40;;;;;;;3.60;1.60;;;;;;;;;;5073513;28;20049;-35
2023/12/15 09:05:07;;;;;;;3.47;1.90;;;;;;;;;;5073703;28;20029;-35
2023/12/15 09:07:34;;;;;;;4.53;1.85;;;;;;;;;;5073703;28;20024;-35
2023/12/15 09:10:02;;;;;;;2.95;1.92;;;;;;;;;;5073553;28;20029;-35
2023/12/15 09:12:29;;;;;;;5.40;2.00;;;;;;;;;;5073177;28;20029;-35
2023/12/15 09:14:56;;;;;;;4.13;2.10;;;;;;;;;;5073636;28;20029;-36
2023/12/15 09:17:23;;;;;;;5.43;2.17;;;;;;;;;;5073353;28;20111;-36
2023/12/15 09:19:50;;;;;;;2.25;1.70;;;;;;;;;;5073155;28;20398;-36
2023/12/15 09:22:18;;;;;;;3.55;2.10;;;;;;;;;;5073215;28;20106;-36
2023/12/15 09:24:45;;;;;;;6.40;2.08;;;;;;;;;;5073073;28;20040;-36
2023/12/15 09:27:11;;;;;;;2.95;1.90;;;;;;;;;;5073368;28;20074;-39
2023/12/15 09:29:38;;;;;;;5.95;1.70;;;;;;;;;;5073317;28;20086;-36
2023/12/15 09:32:06;;;;;;;2.20;2.00;;;;;;;;;;5073238;28;20111;-36
2023/12/15 09:34:33;;;;;;;3.10;2.05;;;;;;;;;;5073072;28;20039;-36
2023/12/15 09:36:59;;;;;;;3.65;2.00;;;;;;;;;;5073216;28;20051;-36
2023/12/15 09:39:26;;;;;;;5.60;2.88;;;;;;;;;;5073092;28;20046;-36
2023/12/15 09:41:53;;;;;;;7.95;2.60;;;;;;;;;;5073071;28;20081;-36
2023/12/15 09:44:20;;;;;;;6.35;2.92;;;;;;;;;;5072875;28;20452;-36
2023/12/15 09:46:48;;;;;;;6.22;3.05;;;;;;;;;;5072786;28;20039;-36
2023/12/15 09:49:20;;;;;;;4.63;2.95;;;;;;;;;;5072693;28;20372;-35
2023/12/15 09:51:50;;;;;;;4.65;3.70;;;;;;;;;;5072643;28;20033;-36
2023/12/15 09:54:18;;;;;;;6.28;3.95;;;;;;;;;;5072814;28;20502;-36
2023/12/15 09:56:46;;;;;;;7.38;3.88;;;;;;;;;;5072693;28;20032;-36
2023/12/15 09:59:13;;;;;;;6.68;3.47;;;;;;;;;;5072545;28;20436;-36
2023/12/15 10:01:40;;;;;;;4.93;3.85;;;;;;;;;;5072332;28;20115;-33
2023/12/15 10:04:07;;;;;;;6.10;4.38;;;;;;;;;;5075011;28;20465;-36
2023/12/15 10:06:38;;;;;;;8.35;4.45;;;;;;;;;;5072447;28;20028;-36
2023/12/15 10:09:13;;;;;;;7.63;4.20;;;;;;;;;;5072463;28;20021;-41
2023/12/15 10:11:40;;;;;;;8.02;4.30;;;;;;;;;;5060474;28;20422;-33
2023/12/15 10:14:07;;;;;;;6.95;4.60;;;;;;;;;;5072337;28;20029;-32
2023/12/15 10:16:36;;;;;;;7.30;4.78;;;;;;;;;;5068489;28;20041;-36
2023/12/15 10:19:04;;;;;;;5.40;3.50;;;;;;;;;;5060579;28;20123;-41
2023/12/15 10:21:32;;;;;;;6.78;4.03;;;;;;;;;;5060950;28;20028;-36
2023/12/15 10:24:00;;;;;;;7.90;4.88;;;;;;;;;;5061684;28;20036;-32
2023/12/15 10:26:30;;;;;;;4.93;4.40;;;;;;;;;;5060919;28;20039;-32
2023/12/15 10:28:57;;;;;;;7.70;4.68;;;;;;;;;;5060658;28;20033;-37
2023/12/15 10:31:29;;;;;;;4.63;4.03;;;;;;;;;;5060406;28;20086;-36
2023/12/15 10:33:56;;;;;;;5.78;3.83;;;;;;;;;;5060612;28;20082;-32
2023/12/15 10:36:23;;;;;;;6.20;3.22;;;;;;;;;;5062302;28;20429;-33
2023/12/15 10:38:50;;;;;;;7.35;3.42;;;;;;;;;;5061160;28;20025;-33
2023/12/15 10:41:17;;;;;;;4.97;3.13;;;;;;;;;;5060382;28;20033;-33
2023/12/15 10:43:45;;;;;;;5.38;3.60;;;;;;;;;;5063815;28;20040;-32
2023/12/15 10:46:13;;;;;;;7.93;4.80;;;;;;;;;;5071535;28;20036;-37
2023/12/15 10:48:41;;;;;;;5.07;4.40;;;;;;;;;;5051682;28;20114;-33
2023/12/15 10:51:08;;;;;;;6.78;3.58;;;;;;;;;;5051250;28;20035;-36
2023/12/15 10:53:36;;;;;;;5.38;4.13;;;;;;;;;;5051457;28;20098;-35
2023/12/15 10:56:03;;;;;;;5.90;3.88;;;;;;;;;;5051490;28;20021;-33
2023/12/15 10:58:30;;;;;;;4.85;3.80;;;;;;;;;;5051682;28;20450;-35
2023/12/15 11:00:57;;;;;;;7.25;3.95;;;;;;;;;;5051471;28;20033;-35
2023/12/15 11:03:24;;;;;;;7.90;4.30;;;;;;;;;;5051381;28;20080;-36
2023/12/15 11:05:51;;;;;;;6.88;3.92;;;;;;;;;;5051500;28;20033;-34
2023/12/15 11:08:18;;;;;;;9.70;4.28;;;;;;;;;;5051535;28;20031;-37
2023/12/15 11:10:46;;;;;;;7.35;3.90;;;;;;;;;;5060425;28;20016;-44
2023/12/15 11:13:31;;;;;;;10.45;4.50;;;;;;;;;;5071263;28;20119;-35
2023/12/15 11:15:59;;;;;;;5.35;3.83;;;;;;;;;;5071413;28;20032;-37
2023/12/15 11:18:26;;;;;;;14.25;4.20;;;;;;;;;;5071391;28;20439;-44
2023/12/15 11:20:53;;;;;;;26.70;7.07;;;;;;;;;;5070868;28;20025;-46
2023/12/15 11:23:20;;;;;;;100.03;8.80;;;;;;;;;;5065754;28;20066;-38
2023/12/15 11:25:48;;;;;;;125.28;9.98;;;;;;;;;;5071267;28;20048;-46
2023/12/15 11:28:16;;;;;;;68.15;7.45;;;;;;;;;;5070781;28;20041;-42
2023/12/15 11:30:45;;;;;;;78.15;8.23;;;;;;;;;;5069492;28;20020;-50
2023/12/15 11:33:27;;;;;;;51.35;7.10;;;;;;;;;;5070870;28;20028;-42
2023/12/15 11:35:55;;;;;;;35.75;5.25;;;;;;;;;;5072147;28;20036;-43
2023/12/15 11:38:22;;;;;;;25.83;5.70;;;;;;;;;;5074609;28;20109;-44
2023/12/15 11:40:49;;;;;;;18.30;5.53;;;;;;;;;;5072727;28;20086;-44
2023/12/15 11:43:17;;;;;;;10.60;4.40;;;;;;;;;;5074406;28;20044;-43
2023/12/15 11:45:45;;;;;;;7.45;4.50;;;;;;;;;;5074305;28;20028;-42
2023/12/15 11:48:12;;;;;;;9.65;3.83;;;;;;;;;;5074416;28;20028;-43
2023/12/15 11:50:42;;;;;;;5.13;3.80;;;;;;;;;;5073952;28;20024;-46
2023/12/15 11:53:18;;;;;;;10.35;4.80;;;;;;;;;;5054076;28;20111;-45
2023/12/15 11:55:51;;;;;;;14.75;4.70;;;;;;;;;;5067681;28;20036;-41
2023/12/15 11:58:18;;;;;;;11.60;4.53;;;;;;;;;;5054660;28;20033;-52
2023/12/15 12:00:46;;;;;;;14.63;5.40;;;;;;;;;;5070986;28;20486;-50
2023/12/15 12:03:13;;;;;;;10.07;4.63;;;;;;;;;;5064417;28;20052;-51
2023/12/15 12:05:41;;;;;;;18.80;5.30;;;;;;;;;;5071276;28;20029;-58
2023/12/15 12:08:10;;;;;;;16.25;5.22;;;;;;;;;;5064066;28;20502;-58
2023/12/15 12:10:39;;;;;;;9.88;5.13;;;;;;;;;;5060266;28;20125;-57
2023/12/15 12:13:07;;;;;;;12.20;5.55;;;;;;;;;;5072468;28;20035;-58
2023/12/15 12:15:48;;;;;;;17.67;5.75;;;;;;;;;;5071942;28;20487;-58
2023/12/15 12:18:15;;;;;;;13.70;5.10;;;;;;;;;;5071636;28;20064;-58
2023/12/15 12:20:42;;;;;;;12.00;4.40;;;;;;;;;;5074220;28;20032;-58
2023/12/15 12:23:10;;;;;;;11.32;4.45;;;;;;;;;;5071328;28;20119;-58
2023/12/15 12:25:37;;;;;;;12.85;4.53;;;;;;;;;;5071470;28;20040;-58
2023/12/15 12:28:04;;;;;;;10.85;4.80;;;;;;;;;;5070959;28;20065;-58
2023/12/15 12:30:31;;;;;;;9.50;5.07;;;;;;;;;;5073757;28;20032;-58
2023/12/15 12:32:58;;;;;;;10.50;6.15;;;;;;;;;;5071689;28;20435;-57
2023/12/15 12:35:25;;;;;;;9.82;5.30;;;;;;;;;;5050427;28;20042;-58
2023/12/15 12:37:52;;;;;;;9.15;4.60;;;;;;;;;;5065518;28;20020;-57
2023/12/15 12:40:19;;;;;;;6.75;3.90;;;;;;;;;;5065206;28;20025;-57
2023/12/15 12:42:46;;;;;;;9.27;4.40;;;;;;;;;;5072211;28;20139;-58
2023/12/15 12:45:13;;;;;;;15.45;5.70;;;;;;;;;;5056192;28;20103;-58
2023/12/15 12:47:41;;;;;;;19.45;5.90;;;;;;;;;;5063719;28;20493;-57
2023/12/15 12:50:09;;;;;;;11.73;5.10;;;;;;;;;;5053484;28;20041;-51
2023/12/15 12:52:36;;;;;;;6.03;4.18;;;;;;;;;;5072856;28;20462;-58
2023/12/15 12:55:06;;;;;;;23.95;7.13;;;;;;;;;;5073476;28;20514;-58
2023/12/15 12:57:47;;;;;;;8.00;5.65;;;;;;;;;;5054819;28;20500;-56
2023/12/15 13:00:16;;;;;;;10.85;6.22;;;;;;;;;;5046646;28;20035;-54
2023/12/15 13:02:43;;;;;;;11.45;5.15;;;;;;;;;;5066454;28;20060;-58
2023/12/15 13:05:10;;;;;;;5.78;4.93;;;;;;;;;;5072118;28;20040;-58
2023/12/15 13:07:37;;;;;;;12.25;5.93;;;;;;;;;;5051328;28;20111;-58
2023/12/15 13:10:05;;;;;;;10.15;6.18;;;;;;;;;;5068345;28;20085;-57
2023/12/15 13:12:32;;;;;;;9.43;5.60;;;;;;;;;;5072169;28;20115;-58
2023/12/15 13:14:59;;;;;;;8.15;5.32;;;;;;;;;;5069783;28;20031;-58
2023/12/15 13:17:26;;;;;;;7.93;5.47;;;;;;;;;;5070009;28;20056;-57
2023/12/15 13:19:54;;;;;;;7.35;5.57;;;;;;;;;;5072747;28;20069;-57
2023/12/15 13:22:26;;;;;;;5.03;4.07;;;;;;;;;;5068926;28;20039;-58
2023/12/15 13:24:53;;;;;;;5.32;4.20;;;;;;;;;;5064812;28;20581;-58
2023/12/15 13:27:20;;;;;;;7.30;5.15;;;;;;;;;;5068541;28;20081;-57
2023/12/15 13:29:48;;;;;;;7.38;4.47;;;;;;;;;;5060397;28;20486;-58
2023/12/15 13:32:16;;;;;;;6.30;4.55;;;;;;;;;;5068199;28;20040;-57
2023/12/15 13:34:44;;;;;;;7.53;4.78;;;;;;;;;;5072847;28;20036;-57
2023/12/15 13:37:12;;;;;;;7.10;5.25;;;;;;;;;;5072332;28;20040;-58
2023/12/15 13:39:40;;;;;;;9.23;6.53;;;;;;;;;;5072251;28;20183;-58
2023/12/15 13:42:07;;;;;;;10.00;5.82;;;;;;;;;;5071753;28;20037;-58
2023/12/15 13:44:34;;;;;;;13.23;5.22;;;;;;;;;;5072619;28;20059;-58
2023/12/15 13:47:01;;;;;;;14.07;5.13;;;;;;;;;;5059055;28;20016;-57
2023/12/15 13:49:31;;;;;;;12.85;4.82;;;;;;;;;;5072044;28;20048;-58
2023/12/15 13:51:59;;;;;;;8.65;5.43;;;;;;;;;;5071652;28;20086;-57
2023/12/15 13:54:26;;;;;;;10.18;6.30;;;;;;;;;;5072656;28;20036;-58
2023/12/15 13:56:56;;;;;;;6.45;4.82;;;;;;;;;;5059073;28;20090;-58
2023/12/15 13:59:23;;;;;;;7.43;5.20;;;;;;;;;;5071909;28;20036;-57
2023/12/15 14:01:50;;;;;;;10.90;6.50;;;;;;;;;;5052165;28;20049;-57
2023/12/15 14:04:17;;;;;;;10.32;6.07;;;;;;;;;;5052189;28;20044;-59
2023/12/15 14:06:48;;;;;;;7.28;6.32;;;;;;;;;;5052322;28;20041;-57
2023/12/15 14:09:15;;;;;;;7.15;5.25;;;;;;;;;;5066195;28;20045;-58
2023/12/15 14:11:42;;;;;;;4.82;4.25;;;;;;;;;;5052573;28;20550;-57
2023/12/15 14:14:10;;;;;;;9.63;4.47;;;;;;;;;;5052182;28;20025;-57
2023/12/15 14:16:37;;;;;;;12.73;6.18;;;;;;;;;;5071908;28;20032;-58
2023/12/15 14:19:04;;;;;;;11.40;6.53;;;;;;;;;;5071694;28;20029;-57
2023/12/15 14:21:31;;;;;;;12.40;7.88;;;;;;;;;;5064722;28;20045;-57
2023/12/15 14:23:58;;;;;;;9.57;7.78;;;;;;;;;;5065292;28;20513;-57
2023/12/15 14:26:25;;;;;;;10.75;6.63;;;;;;;;;;5041279;28;20028;-57
2023/12/15 14:28:52;;;;;;;13.00;7.00;;;;;;;;;;5071228;28;20113;-58
2023/12/15 14:31:20;;;;;;;8.93;6.75;;;;;;;;;;5071956;28;20060;-57
2023/12/15 14:33:47;;;;;;;12.05;6.78;;;;;;;;;;5070779;28;20158;-58
2023/12/15 14:36:14;;;;;;;10.63;5.57;;;;;;;;;;5051907;28;20539;-58
2023/12/15 14:38:42;;;;;;;8.02;4.75;;;;;;;;;;5061233;28;20493;-59